createdAt,value
2023-04-16T00:03:46.321Z,10.29
2023-04-16T00:09:48.488Z,10.25
2023-04-16T00:15:50.582Z,10.21
2023-04-16T00:21:52.445Z,9.95
2023-04-16T00:27:54.345Z,10.09
2023-04-16T00:33:56.433Z,9.94
2023-04-16T00:39:58.305Z,9.95
2023-04-16T00:46:00.631Z,9.91
2023-04-16T00:52:03.360Z,9.97
2023-04-16T00:58:05.276Z,10.05
2023-04-16T01:04:07.408Z,9.87
2023-04-16T01:10:09.613Z,9.71
2023-04-16T01:16:13.133Z,9.69
2023-04-16T01:22:15.074Z,9.46
2023-04-16T01:28:17.052Z,9.53
2023-04-16T01:34:19.100Z,9.51
2023-04-16T01:40:21.088Z,9.43
2023-04-16T01:46:32.230Z,9.31
2023-04-16T01:52:34.147Z,9.39
2023-04-16T01:58:36.072Z,9.28
2023-04-16T02:04:40.091Z,9.20
2023-04-16T02:10:41.972Z,9.42
2023-04-16T02:16:43.900Z,9.27
2023-04-16T02:22:45.891Z,9.24
2023-04-16T02:28:47.802Z,9.13
2023-04-16T02:34:49.689Z,9.24
2023-04-16T02:40:51.557Z,9.33
2023-04-16T02:46:53.433Z,9.33
2023-04-16T02:52:55.346Z,9.17
2023-04-16T02:58:57.230Z,9.10
2023-04-16T03:04:59.202Z,9.07
2023-04-16T03:11:01.538Z,9.07
2023-04-16T03:17:03.598Z,9.06
2023-04-16T03:23:05.663Z,8.98
2023-04-16T03:29:07.881Z,8.96
2023-04-16T03:35:10.502Z,9.09
2023-04-16T03:41:12.420Z,9.09
2023-04-16T03:47:14.439Z,8.95
2023-04-16T03:53:16.558Z,9.09
2023-04-16T03:59:18.668Z,9.00
2023-04-16T04:05:20.610Z,9.01
2023-04-16T04:11:22.567Z,8.78
2023-04-16T04:17:24.514Z,8.99
2023-04-16T04:23:26.435Z,8.87
2023-04-16T04:29:28.334Z,8.82
2023-04-16T04:35:30.310Z,8.82
2023-04-16T04:41:32.252Z,8.93
2023-04-16T04:47:34.192Z,8.80
2023-04-16T04:53:36.426Z,8.92
2023-04-16T04:59:38.322Z,8.90
2023-04-16T05:05:41.274Z,8.93
2023-04-16T05:11:43.260Z,8.82
2023-04-16T05:17:45.568Z,8.88
2023-04-16T05:23:47.476Z,8.86
2023-04-16T05:29:49.434Z,8.75
2023-04-16T05:35:51.408Z,8.84
2023-04-16T05:41:53.392Z,8.61
2023-04-16T05:47:55.336Z,8.80
2023-04-16T05:53:57.296Z,8.72
2023-04-16T05:59:59.228Z,8.58
2023-04-16T06:06:01.232Z,8.59
2023-04-16T06:12:03.603Z,8.52
2023-04-16T06:18:05.780Z,8.55
2023-04-16T06:24:07.811Z,8.46
2023-04-16T06:30:14.834Z,8.62
2023-04-16T06:36:16.864Z,8.67
2023-04-16T06:42:18.751Z,8.64
2023-04-16T06:48:20.713Z,8.91
2023-04-16T06:54:22.594Z,8.65
2023-04-16T07:00:24.473Z,8.61
2023-04-16T07:06:27.189Z,8.69
2023-04-16T07:12:29.122Z,8.60
2023-04-16T07:18:31.073Z,8.58
2023-04-16T07:24:33.075Z,8.43
2023-04-16T07:30:35.750Z,8.45
2023-04-16T07:36:37.769Z,8.64
2023-04-16T07:42:39.679Z,8.51
2023-04-16T07:48:41.598Z,8.62
2023-04-16T07:54:43.564Z,8.45
2023-04-16T08:00:45.763Z,8.65
2023-04-16T08:06:47.650Z,8.52
2023-04-16T08:12:49.564Z,8.50
2023-04-16T08:18:51.639Z,8.79
2023-04-16T08:24:53.600Z,8.49
2023-04-16T08:30:55.731Z,8.85
2023-04-16T08:36:57.634Z,8.66
2023-04-16T08:43:02.753Z,8.85
2023-04-16T08:49:09.099Z,8.82
2023-04-16T08:55:16.060Z,8.71
2023-04-16T09:01:19.634Z,8.75
2023-04-16T09:07:21.921Z,8.83
2023-04-16T09:13:24.018Z,8.76
2023-04-16T09:19:25.966Z,8.77
2023-04-16T09:25:28.433Z,8.85
2023-04-16T09:31:30.353Z,9.05
2023-04-16T09:37:32.347Z,8.89
2023-04-16T09:43:35.559Z,9.29
2023-04-16T09:49:44.019Z,9.08
2023-04-16T09:55:46.911Z,9.22
2023-04-16T10:01:50.761Z,9.07
2023-04-16T10:07:52.782Z,9.16
2023-04-16T10:13:54.668Z,9.24
2023-04-16T10:19:58.210Z,9.13
2023-04-16T10:26:01.884Z,9.13
2023-04-16T10:32:05.941Z,9.23
2023-04-16T10:38:41.870Z,8.97
2023-04-16T10:44:45.994Z,9.05
2023-04-16T10:50:58.356Z,9.11
2023-04-16T10:57:05.027Z,9.08
2023-04-16T11:03:07.138Z,9.01
2023-04-16T11:09:49.756Z,9.17
2023-04-16T11:15:51.803Z,9.17
2023-04-16T11:21:54.602Z,9.05
2023-04-16T11:28:01.093Z,9.03
2023-04-16T11:34:03.815Z,9.17
2023-04-16T11:40:08.243Z,9.28
2023-04-16T11:46:20.555Z,9.35
2023-04-16T11:52:31.716Z,9.49
2023-04-16T11:58:34.770Z,9.49
2023-04-16T12:04:37.150Z,9.71
2023-04-16T12:10:55.083Z,9.74
2023-04-16T12:17:16.617Z,9.82
2023-04-16T12:23:28.553Z,9.78
2023-04-16T12:29:30.500Z,9.87
2023-04-16T12:35:34.290Z,9.82
2023-04-16T12:41:38.845Z,9.90
2023-04-16T12:47:40.808Z,10.12
2023-04-16T12:53:42.763Z,9.99
2023-04-16T12:59:46.200Z,10.07
2023-04-16T13:05:48.134Z,10.01
2023-04-16T13:11:50.050Z,9.89
2023-04-16T13:17:52.008Z,9.82
2023-04-16T13:23:54.534Z,10.07
2023-04-16T13:29:56.469Z,9.95
2023-04-16T13:35:58.393Z,10.03
2023-04-16T13:42:00.347Z,10.19
2023-04-16T13:48:02.536Z,10.12
2023-04-16T13:54:04.605Z,9.85
2023-04-16T14:00:11.875Z,9.86
2023-04-16T14:06:17.978Z,10.12
2023-04-16T14:12:20.119Z,10.06
2023-04-16T14:18:22.115Z,10.37
2023-04-16T14:24:23.986Z,10.51
2023-04-16T14:30:26.216Z,10.61
2023-04-16T14:36:28.273Z,10.36
2023-04-16T14:42:30.268Z,10.38
2023-04-16T14:48:32.773Z,10.26
2023-04-16T14:54:34.846Z,10.12
2023-04-16T15:00:37.029Z,10.18
2023-04-16T15:06:39.703Z,10.12
2023-04-16T15:12:41.602Z,10.15
2023-04-16T15:18:43.829Z,10.15
2023-04-16T15:24:45.796Z,10.23
2023-04-16T15:30:47.669Z,10.75
2023-04-16T15:36:49.606Z,10.59
2023-04-16T15:42:51.657Z,10.74
2023-04-16T15:48:53.562Z,11.02
2023-04-16T15:54:55.844Z,10.69
2023-04-16T16:00:57.733Z,10.78
2023-04-16T16:06:59.676Z,10.68
2023-04-16T16:13:05.392Z,10.69
2023-04-16T16:19:07.800Z,10.80
2023-04-16T16:25:10.282Z,10.89
2023-04-16T16:31:12.521Z,10.97
2023-04-16T16:37:15.079Z,10.95
2023-04-16T16:43:17.048Z,11.01
2023-04-16T16:49:19.216Z,11.04
2023-04-16T16:55:21.528Z,10.95
2023-04-16T17:01:23.472Z,11.04
2023-04-16T17:07:25.757Z,10.73
2023-04-16T17:13:27.699Z,10.65
2023-04-16T17:19:30.224Z,10.59
2023-04-16T17:25:32.513Z,10.73
2023-04-16T17:31:34.493Z,10.58
2023-04-16T17:37:36.452Z,10.51
2023-04-16T17:43:38.416Z,10.49
2023-04-16T17:49:40.368Z,10.45
2023-04-16T17:55:56.029Z,10.39
2023-04-16T18:01:58.777Z,10.39
2023-04-16T18:08:01.106Z,10.27
2023-04-16T18:14:02.996Z,10.23
2023-04-16T18:20:07.175Z,10.18
2023-04-16T18:26:09.455Z,10.19
2023-04-16T18:32:12.962Z,9.86
2023-04-16T18:38:14.912Z,9.72
2023-04-16T18:44:17.700Z,9.68
2023-04-16T18:50:19.608Z,9.55
2023-04-16T18:56:21.679Z,9.60
2023-04-16T19:02:23.745Z,9.58
2023-04-16T19:08:26.023Z,9.49
2023-04-16T19:14:27.968Z,9.49
2023-04-16T19:20:29.903Z,9.40
2023-04-16T19:26:31.768Z,9.50
2023-04-16T19:32:33.915Z,9.56
2023-04-16T19:38:35.974Z,9.72
2023-04-16T19:44:37.951Z,9.85
2023-04-16T19:50:41.860Z,9.74
2023-04-16T19:56:43.814Z,9.71
2023-04-16T20:02:45.932Z,9.78
2023-04-16T20:08:47.962Z,9.93
2023-04-16T20:14:50.221Z,9.88
2023-04-16T20:20:52.128Z,9.74
2023-04-16T20:26:54.024Z,9.73
2023-04-16T20:32:56.737Z,9.85
2023-04-16T20:38:59.885Z,9.80
2023-04-16T20:45:01.971Z,9.82
2023-04-16T20:51:07.655Z,9.91
2023-04-16T20:57:10.646Z,9.89
2023-04-16T21:03:12.644Z,9.99
2023-04-16T21:09:14.796Z,9.84
2023-04-16T21:15:16.913Z,9.90
2023-04-16T21:21:19.949Z,9.83
2023-04-16T21:27:21.858Z,9.74
2023-04-16T21:33:23.795Z,9.81
2023-04-16T21:39:30.681Z,9.78
2023-04-16T21:45:32.657Z,9.73
2023-04-16T21:51:35.385Z,9.74
2023-04-16T21:57:37.265Z,9.82
2023-04-16T22:03:40.739Z,9.72
2023-04-16T22:09:42.906Z,9.60
2023-04-16T22:15:44.790Z,9.71
2023-04-16T22:21:48.413Z,9.60
2023-04-16T22:27:50.640Z,9.63
2023-04-16T22:33:52.545Z,9.70
2023-04-16T22:39:54.490Z,9.70
2023-04-16T22:46:06.953Z,9.75
2023-04-16T22:52:08.902Z,9.52
2023-04-16T22:58:11.026Z,9.77
2023-04-16T23:04:13.031Z,9.74
2023-04-16T23:10:15.076Z,9.39
2023-04-16T23:16:17.040Z,9.59
2023-04-16T23:22:18.981Z,9.32
2023-04-16T23:28:21.933Z,9.43
2023-04-16T23:34:23.888Z,9.36
2023-04-16T23:40:25.791Z,9.41
2023-04-16T23:46:27.750Z,9.43
2023-04-16T23:52:29.671Z,9.30
2023-04-16T23:58:31.630Z,9.35
